createdAt,value
2023-11-30T00:07:31.732Z,80.70
2023-11-30T00:17:33.217Z,80.60
2023-11-30T00:27:34.733Z,80.80
2023-11-30T00:37:36.196Z,80.90
2023-11-30T00:47:37.747Z,81.00
2023-11-30T00:57:39.378Z,81.30
2023-11-30T01:07:41.080Z,81.30
2023-11-30T01:17:42.666Z,81.40
2023-11-30T01:27:44.248Z,81.70
2023-11-30T01:37:45.763Z,81.70
2023-11-30T01:47:48.266Z,81.70
2023-11-30T01:57:49.768Z,81.80
2023-11-30T02:07:51.271Z,82.00
2023-11-30T02:17:53.119Z,82.00
2023-11-30T02:27:54.889Z,82.00
2023-11-30T02:37:58.234Z,82.40
2023-11-30T02:48:00.386Z,82.40
2023-11-30T02:58:02.054Z,82.30
2023-11-30T03:08:03.523Z,82.30
2023-11-30T03:18:05.300Z,82.50
2023-11-30T03:28:06.813Z,82.50
2023-11-30T03:38:08.251Z,82.60
2023-11-30T03:48:09.742Z,82.80
2023-11-30T03:58:12.188Z,82.80
2023-11-30T04:08:13.715Z,82.90
2023-11-30T04:18:15.231Z,82.90
2023-11-30T04:28:16.711Z,83.00
2023-11-30T04:38:18.166Z,83.00
2023-11-30T04:48:19.635Z,83.10
2023-11-30T04:58:25.441Z,83.20
2023-11-30T05:08:28.537Z,83.40
2023-11-30T05:18:32.941Z,83.50
2023-11-30T05:28:35.776Z,83.50
2023-11-30T05:38:37.591Z,83.70
2023-11-30T05:48:39.206Z,83.40
2023-11-30T05:58:40.770Z,83.70
2023-11-30T06:08:42.449Z,83.60
2023-11-30T06:18:44.014Z,84.40
2023-11-30T06:28:45.675Z,83.70
2023-11-30T06:38:51.320Z,83.60
2023-11-30T06:48:56.469Z,83.00
2023-11-30T06:59:00.709Z,82.80
2023-11-30T07:09:02.331Z,83.40
2023-11-30T07:19:04.110Z,87.30
2023-11-30T07:29:05.643Z,76.80
2023-11-30T07:39:07.194Z,74.40
2023-11-30T07:49:09.073Z,74.20
2023-11-30T07:59:10.519Z,74.10
2023-11-30T08:09:17.227Z,74.10
2023-11-30T08:19:18.797Z,74.20
2023-11-30T08:29:20.285Z,74.50
2023-11-30T08:39:24.607Z,74.60
2023-11-30T08:49:26.432Z,74.80
2023-11-30T08:59:28.047Z,75.20
2023-11-30T09:09:29.622Z,75.30
2023-11-30T09:19:34.277Z,75.40
2023-11-30T09:29:38.791Z,75.80
2023-11-30T09:39:40.465Z,75.80
2023-11-30T09:49:41.967Z,76.10
2023-11-30T10:19:50.077Z,99.90
2023-11-30T10:29:51.588Z,99.90
2023-11-30T10:39:53.100Z,99.90
2023-11-30T10:59:56.562Z,99.90
2023-11-30T11:10:00.077Z,99.90
2023-11-30T11:20:02.225Z,99.90
2023-11-30T11:30:03.706Z,99.90
2023-11-30T11:40:05.209Z,99.90
2023-11-30T11:50:06.635Z,99.90
2023-11-30T12:00:08.090Z,99.90
2023-11-30T12:10:10.582Z,99.90
2023-11-30T12:20:12.011Z,99.90
2023-11-30T12:30:13.565Z,99.90
2023-11-30T17:14:21.504Z,78.50
2023-11-30T17:24:23.212Z,78.70
2023-11-30T17:34:37.986Z,79.30
2023-11-30T17:54:59.217Z,79.30
2023-11-30T18:05:06.350Z,79.30
2023-11-30T18:46:11.224Z,79.50
2023-11-30T18:56:19.892Z,79.70
2023-11-30T19:16:36.833Z,90.20
2023-11-30T19:26:40.445Z,82.00
2023-11-30T19:36:46.307Z,84.70
2023-11-30T19:46:58.268Z,84.30
2023-11-30T19:57:08.016Z,85.90
2023-11-30T20:17:41.362Z,86.70
2023-11-30T20:27:44.748Z,86.30
2023-11-30T20:37:48.326Z,86.70
2023-11-30T20:47:56.993Z,88.00
2023-11-30T20:57:58.841Z,86.90
2023-11-30T21:08:03.171Z,86.20
2023-11-30T21:18:08.897Z,86.60
2023-11-30T21:28:18.086Z,86.80
2023-11-30T21:38:24.906Z,86.30
2023-11-30T21:48:28.646Z,86.00
2023-11-30T22:09:01.054Z,86.70
2023-11-30T22:19:10.341Z,86.40
2023-11-30T22:39:54.706Z,86.40
2023-11-30T23:21:33.517Z,87.20
2023-11-30T23:42:11.255Z,87.00
2023-11-30T23:52:20.371Z,87.80
